createdAt,value
2023-03-12T00:02:08.810Z,-1.42
2023-03-12T00:07:15.028Z,-1.55
2023-03-12T00:12:19.402Z,-1.55
2023-03-12T00:17:23.500Z,-1.47
2023-03-12T00:22:27.810Z,-1.44
2023-03-12T00:27:34.841Z,-1.48
2023-03-12T00:32:39.255Z,-1.47
2023-03-12T00:37:43.329Z,-1.48
2023-03-12T00:42:47.375Z,-1.51
2023-03-12T00:47:51.778Z,-1.53
2023-03-12T00:52:56.537Z,-1.57
2023-03-12T00:58:00.373Z,-1.59
2023-03-12T01:03:04.722Z,-1.64
2023-03-12T01:08:09.797Z,-1.67
2023-03-12T01:13:16.957Z,-1.70
2023-03-12T01:18:21.876Z,-1.71
2023-03-12T01:23:26.590Z,-1.70
2023-03-12T01:28:30.900Z,-1.70
2023-03-12T01:33:34.922Z,-1.64
2023-03-12T01:38:41.729Z,-1.61
2023-03-12T01:43:46.947Z,-1.60
2023-03-12T01:49:20.745Z,-1.62
2023-03-12T01:54:35.498Z,-1.63
2023-03-12T01:59:44.806Z,-1.59
2023-03-12T02:04:52.263Z,-1.54
2023-03-12T02:09:57.712Z,-1.50
2023-03-12T02:15:02.452Z,-1.48
2023-03-12T02:20:37.742Z,-1.46
2023-03-12T02:25:47.584Z,-1.39
2023-03-12T02:30:53.448Z,-1.30
2023-03-12T02:35:58.566Z,-1.25
2023-03-12T02:41:24.955Z,-1.20
2023-03-12T02:46:34.096Z,-1.15
2023-03-12T02:51:38.076Z,-1.05
2023-03-12T02:56:43.704Z,-0.96
2023-03-12T03:01:48.316Z,-0.97
2023-03-12T03:06:52.888Z,-0.97
2023-03-12T03:11:57.985Z,-0.96
2023-03-12T03:17:03.551Z,-0.94
2023-03-12T03:22:08.082Z,-0.93
2023-03-12T03:27:12.769Z,-0.94
2023-03-12T03:32:18.423Z,-0.89
2023-03-12T03:37:24.136Z,-0.89
2023-03-12T03:42:29.045Z,-0.94
2023-03-12T03:47:34.022Z,-0.99
2023-03-12T03:52:40.240Z,-1.00
2023-03-12T03:57:44.945Z,-0.97
2023-03-12T04:02:50.279Z,-0.93
2023-03-12T04:07:57.035Z,-0.82
2023-03-12T04:13:02.517Z,-0.71
2023-03-12T04:18:07.646Z,-0.64
2023-03-12T04:23:12.396Z,-0.53
2023-03-12T04:28:16.986Z,-0.42
2023-03-12T04:33:22.955Z,-0.34
2023-03-12T04:38:30.435Z,-0.28
2023-03-12T04:43:36.475Z,-0.20
2023-03-12T04:48:40.632Z,-0.14
2023-03-12T04:53:46.638Z,-0.08
2023-03-12T04:58:51.021Z,-0.02
2023-03-12T05:03:55.936Z,-0.01
2023-03-12T05:09:02.033Z,0.03
2023-03-12T05:14:07.743Z,0.05
2023-03-12T05:19:12.929Z,0.01
2023-03-12T05:24:19.630Z,-0.09
2023-03-12T05:29:24.144Z,-0.17
2023-03-12T05:34:32.206Z,-0.23
2023-03-12T05:39:39.160Z,-0.26
2023-03-12T05:44:43.762Z,-0.22
2023-03-12T05:49:53.943Z,-0.13
2023-03-12T05:54:59.698Z,-0.08
2023-03-12T06:00:04.889Z,0.00
2023-03-12T06:05:17.347Z,0.18
2023-03-12T06:10:21.623Z,0.38
2023-03-12T06:15:26.896Z,0.50
2023-03-12T06:20:31.941Z,0.60
2023-03-12T06:25:36.630Z,0.70
2023-03-12T06:30:42.350Z,0.82
2023-03-12T06:35:46.847Z,0.95
2023-03-12T06:41:00.437Z,1.07
2023-03-12T06:46:07.513Z,1.22
2023-03-12T06:51:14.216Z,1.40
2023-03-12T06:56:20.341Z,1.54
2023-03-12T07:01:24.420Z,1.66
2023-03-12T07:06:29.712Z,1.76
2023-03-12T07:11:34.104Z,1.87
2023-03-12T07:16:38.048Z,1.99
2023-03-12T07:21:42.390Z,2.19
2023-03-12T07:26:47.345Z,2.52
2023-03-12T07:31:51.750Z,2.64
2023-03-12T07:36:57.093Z,2.60
2023-03-12T07:42:01.279Z,2.58
2023-03-12T07:47:22.712Z,2.63
2023-03-12T07:52:27.561Z,2.69
2023-03-12T07:57:32.348Z,2.76
2023-03-12T08:02:37.733Z,2.83
2023-03-12T08:07:42.267Z,2.76
2023-03-12T08:12:47.061Z,2.78
2023-03-12T08:17:52.002Z,2.73
2023-03-12T08:22:55.973Z,2.73
2023-03-12T08:27:59.805Z,2.72
2023-03-12T08:33:04.937Z,2.68
2023-03-12T08:38:09.386Z,2.72
2023-03-12T08:43:14.205Z,2.81
2023-03-12T08:48:18.409Z,2.90
2023-03-12T08:53:23.838Z,3.09
2023-03-12T08:58:29.334Z,3.35
2023-03-12T09:03:33.649Z,3.64
2023-03-12T09:08:38.535Z,3.85
2023-03-12T09:14:16.913Z,4.00
2023-03-12T09:19:09.603Z,4.09
2023-03-12T09:24:14.247Z,4.27
2023-03-12T09:29:21.398Z,4.34
2023-03-12T09:34:27.657Z,4.51
2023-03-12T09:39:31.999Z,4.49
2023-03-12T09:44:43.733Z,4.54
2023-03-12T09:49:51.502Z,4.85
2023-03-12T09:55:03.204Z,5.02
2023-03-12T10:00:19.152Z,4.99
2023-03-12T10:05:45.222Z,4.95
2023-03-12T10:11:27.869Z,4.63
2023-03-12T10:16:35.746Z,4.59
2023-03-12T10:22:21.577Z,4.65
2023-03-12T10:27:30.308Z,4.87
2023-03-12T10:32:44.894Z,5.02
2023-03-12T10:38:02.302Z,5.21
2023-03-12T10:43:07.717Z,5.54
2023-03-12T10:48:19.581Z,5.51
2023-03-12T10:53:30.091Z,5.41
2023-03-12T10:58:54.512Z,5.37
2023-03-12T11:04:18.180Z,5.59
2023-03-12T11:09:22.371Z,5.92
2023-03-12T11:14:30.953Z,5.94
2023-03-12T11:19:36.162Z,5.88
2023-03-12T11:25:02.159Z,5.98
2023-03-12T11:30:09.384Z,5.97
2023-03-12T11:35:15.513Z,6.09
2023-03-12T11:40:39.325Z,6.21
2023-03-12T11:46:02.519Z,6.33
2023-03-12T11:51:39.741Z,6.64
2023-03-12T11:57:13.732Z,7.17
2023-03-12T12:02:48.672Z,7.64
2023-03-12T12:08:12.572Z,7.94
2023-03-12T12:13:44.003Z,8.02
2023-03-12T12:19:27.283Z,7.92
2023-03-12T12:24:41.977Z,8.01
2023-03-12T12:30:08.652Z,7.96
2023-03-12T12:35:34.627Z,7.95
2023-03-12T12:40:49.994Z,7.85
2023-03-12T12:45:58.804Z,7.66
2023-03-12T12:51:06.944Z,7.65
2023-03-12T12:56:23.451Z,7.77
2023-03-12T13:01:28.097Z,7.86
2023-03-12T13:07:04.848Z,7.93
2023-03-12T13:12:33.544Z,7.76
2023-03-12T13:17:54.057Z,7.80
2023-03-12T13:23:23.950Z,7.80
2023-03-12T13:29:05.984Z,7.71
2023-03-12T13:34:19.768Z,7.65
2023-03-12T13:39:35.499Z,7.73
2023-03-12T13:44:40.871Z,7.71
2023-03-12T13:49:54.302Z,7.67
2023-03-12T13:55:22.200Z,7.54
2023-03-12T14:00:38.245Z,7.56
2023-03-12T14:05:56.247Z,7.67
2023-03-12T14:11:19.930Z,7.73
2023-03-12T14:16:29.097Z,7.79
2023-03-12T14:21:39.966Z,7.86
2023-03-12T14:26:46.248Z,7.89
2023-03-12T14:31:56.850Z,7.90
2023-03-12T14:37:16.699Z,7.82
2023-03-12T14:42:28.387Z,7.84
2023-03-12T14:47:53.228Z,7.81
2023-03-12T14:53:25.108Z,7.72
2023-03-12T14:58:30.211Z,7.61
2023-03-12T15:03:49.867Z,7.50
2023-03-12T15:08:57.741Z,7.35
2023-03-12T15:14:09.254Z,7.15
2023-03-12T15:19:22.558Z,6.99
2023-03-12T15:24:26.823Z,6.88
2023-03-12T15:29:32.197Z,6.77
2023-03-12T15:34:40.714Z,6.63
2023-03-12T15:39:52.825Z,6.48
2023-03-12T15:45:03.137Z,6.34
2023-03-12T15:50:21.396Z,6.24
2023-03-12T15:55:31.305Z,6.18
2023-03-12T16:00:46.345Z,6.10
2023-03-12T16:05:52.031Z,6.01
2023-03-12T16:10:59.677Z,5.86
2023-03-12T16:16:07.843Z,5.67
2023-03-12T16:21:14.984Z,5.43
2023-03-12T16:26:26.970Z,5.20
2023-03-12T16:31:32.066Z,5.07
2023-03-12T16:36:40.936Z,4.97
2023-03-12T16:41:51.265Z,4.86
2023-03-12T16:46:58.913Z,4.77
2023-03-12T16:52:15.593Z,4.67
2023-03-12T16:57:41.374Z,4.60
2023-03-12T17:02:50.865Z,4.54
2023-03-12T17:08:01.482Z,4.52
2023-03-12T17:13:06.421Z,4.46
2023-03-12T17:18:14.896Z,4.37
2023-03-12T17:23:22.226Z,4.31
2023-03-12T17:28:30.008Z,4.29
2023-03-12T17:33:35.983Z,4.27
2023-03-12T17:38:43.350Z,4.28
2023-03-12T17:43:51.972Z,4.27
2023-03-12T17:49:00.312Z,4.27
2023-03-12T17:54:08.814Z,4.25
2023-03-12T17:59:16.064Z,4.20
2023-03-12T18:04:27.505Z,4.19
2023-03-12T18:09:33.857Z,4.19
2023-03-12T18:14:42.803Z,4.18
2023-03-12T18:19:48.475Z,4.16
2023-03-12T18:24:58.951Z,4.16
2023-03-12T18:30:05.277Z,4.14
2023-03-12T18:35:17.759Z,4.13
2023-03-12T18:40:26.524Z,4.10
2023-03-12T18:45:37.032Z,4.08
2023-03-12T18:50:44.705Z,4.09
2023-03-12T18:56:17.809Z,4.12
2023-03-12T19:01:24.026Z,4.19
2023-03-12T19:06:37.733Z,4.27
2023-03-12T19:11:52.549Z,4.32
2023-03-12T19:17:06.396Z,4.34
2023-03-12T19:22:14.246Z,4.37
2023-03-12T19:27:20.922Z,4.37
2023-03-12T19:32:40.667Z,4.36
2023-03-12T19:37:51.036Z,4.33
2023-03-12T19:42:59.030Z,4.32
2023-03-12T19:48:05.906Z,4.33
2023-03-12T19:53:13.633Z,4.31
2023-03-12T19:58:21.105Z,4.31
2023-03-12T20:03:27.984Z,4.31
2023-03-12T20:08:37.422Z,4.30
2023-03-12T20:13:54.590Z,4.29
2023-03-12T20:19:04.964Z,4.29
2023-03-12T20:24:12.285Z,4.30
2023-03-12T20:29:18.811Z,4.29
2023-03-12T20:34:29.167Z,4.26
2023-03-12T20:39:38.302Z,4.22
2023-03-12T20:44:47.125Z,4.17
2023-03-12T20:49:56.976Z,4.13
2023-03-12T20:55:04.320Z,4.09
2023-03-12T21:00:12.844Z,4.06
2023-03-12T21:05:23.267Z,4.08
2023-03-12T21:10:31.800Z,4.14
2023-03-12T21:15:39.238Z,4.14
2023-03-12T21:20:44.631Z,4.08
2023-03-12T21:26:00.272Z,4.05
2023-03-12T21:31:10.877Z,4.03
2023-03-12T21:36:17.193Z,4.01
2023-03-12T21:42:16.951Z,4.02
2023-03-12T21:47:20.854Z,4.04
2023-03-12T21:52:25.136Z,4.05
2023-03-12T21:57:30.789Z,4.08
2023-03-12T22:02:34.567Z,4.10
2023-03-12T22:07:39.182Z,4.13
2023-03-12T22:12:42.855Z,4.13
2023-03-12T22:17:46.878Z,4.15
2023-03-12T22:22:50.575Z,4.16
2023-03-12T22:27:54.188Z,4.17
2023-03-12T22:32:59.218Z,4.18
2023-03-12T22:38:03.006Z,4.20
2023-03-12T22:43:07.160Z,4.23
2023-03-12T22:48:11.979Z,4.26
2023-03-12T22:53:15.901Z,4.31
2023-03-12T22:58:21.806Z,4.35
2023-03-12T23:03:28.539Z,4.38
2023-03-12T23:08:32.794Z,4.41
2023-03-12T23:13:41.895Z,4.44
2023-03-12T23:18:47.984Z,4.45
2023-03-12T23:45:13.106Z,4.55
2023-03-12T23:50:18.463Z,4.56
2023-03-12T23:55:22.258Z,4.61
